Time;durP1;ratioP1;P1;durP2;ratioP2;P2;SDS_P1;SDS_P2;PMS_P1;PMS_P2;Temp;Humidity;BMP_temperature;BMP_pressure;BME280_temperature;BME280_humidity;BME280_pressure;Samples;Min_cycle;Max_cycle;Signal;HPM_P1;HPM_P2
2021/07/15 00:00:58;;;;;;;852.40;746.90;;;;;;;;;;4373176;32;20158;-85
2021/07/15 00:03:29;;;;;;;970.80;808.70;;;;;;;;;;4370516;32;20129;-84
2021/07/15 00:05:57;;;;;;;1001.40;828.40;;;;;;;;;;4369788;32;20039;-85
2021/07/15 00:08:26;;;;;;;857.80;776.45;;;;;;;;;;4372824;32;20082;-84
2021/07/15 00:11:10;;;;;;;847.58;768.17;;;;;;;;;;4373310;32;20695;-84
2021/07/15 00:13:38;;;;;;;906.38;816.55;;;;;;;;;;4372878;32;20400;-86
2021/07/15 00:16:10;;;;;;;822.30;750.17;;;;;;;;;;4369887;32;20043;-84
2021/07/15 00:18:40;;;;;;;998.92;887.80;;;;;;;;;;4354742;32;20043;-84
2021/07/15 00:21:20;;;;;;;946.28;858.00;;;;;;;;;;4370732;32;20140;-85
2021/07/15 00:23:49;;;;;;;1009.42;895.17;;;;;;;;;;4372672;32;20090;-84
2021/07/15 00:26:19;;;;;;;1695.88;993.80;;;;;;;;;;4368175;32;21381;-84
2021/07/15 00:28:47;;;;;;;827.72;745.05;;;;;;;;;;4356225;32;20579;-85
2021/07/15 00:31:16;;;;;;;1486.93;973.05;;;;;;;;;;4369351;32;20319;-84
2021/07/15 00:33:46;;;;;;;1281.35;956.35;;;;;;;;;;4371992;32;20430;-85
2021/07/15 00:36:14;;;;;;;1038.82;887.67;;;;;;;;;;4368833;32;20098;-84
2021/07/15 00:38:43;;;;;;;1145.18;919.28;;;;;;;;;;4371571;32;20584;-85
2021/07/15 00:41:12;;;;;;;888.70;803.42;;;;;;;;;;4371501;32;20153;-85
2021/07/15 00:43:40;;;;;;;1286.18;944.00;;;;;;;;;;4371032;32;20138;-85
2021/07/15 00:46:09;;;;;;;858.92;766.17;;;;;;;;;;4370148;32;20093;-86
2021/07/15 00:48:38;;;;;;;1730.63;957.08;;;;;;;;;;4370920;32;20410;-85
2021/07/15 00:51:07;;;;;;;1723.15;969.08;;;;;;;;;;4371200;32;20132;-84
2021/07/15 00:53:36;;;;;;;1050.72;814.65;;;;;;;;;;4370782;32;20781;-84
2021/07/15 00:56:06;;;;;;;1219.97;860.83;;;;;;;;;;4368764;32;20124;-84
2021/07/15 00:58:35;;;;;;;1840.72;989.85;;;;;;;;;;4369497;32;20209;-84
2021/07/15 01:01:04;;;;;;;1172.05;855.97;;;;;;;;;;4369233;32;20071;-85
2021/07/15 01:03:33;;;;;;;942.60;767.70;;;;;;;;;;4371758;32;20102;-84
2021/07/15 01:06:01;;;;;;;1128.35;825.20;;;;;;;;;;4371115;32;20039;-85
2021/07/15 01:08:30;;;;;;;820.28;731.78;;;;;;;;;;4370841;32;20043;-84
2021/07/15 01:11:06;;;;;;;818.40;737.62;;;;;;;;;;4374070;32;20100;-85
2021/07/15 01:13:51;;;;;;;917.10;752.37;;;;;;;;;;4371626;32;20116;-84
2021/07/15 01:16:22;;;;;;;1019.28;821.95;;;;;;;;;;4373555;32;20233;-85
2021/07/15 01:18:59;;;;;;;1613.07;964.97;;;;;;;;;;4371031;32;20047;-83
2021/07/15 01:21:31;;;;;;;858.20;764.67;;;;;;;;;;4372832;32;20390;-85
2021/07/15 01:24:06;;;;;;;1644.97;946.10;;;;;;;;;;4374721;32;20461;-84
2021/07/15 01:26:53;;;;;;;1834.32;963.58;;;;;;;;;;4374323;32;20924;-84
2021/07/15 01:29:40;;;;;;;992.80;795.30;;;;;;;;;;4374397;32;20128;-85
2021/07/15 01:32:09;;;;;;;874.90;729.97;;;;;;;;;;4372927;32;20599;-84
2021/07/15 01:34:38;;;;;;;735.42;663.58;;;;;;;;;;4373290;32;20188;-84
2021/07/15 01:37:44;;;;;;;1072.30;770.00;;;;;;;;;;4358030;32;20047;-84
2021/07/15 01:40:35;;;;;;;877.30;729.75;;;;;;;;;;4375626;32;20047;-84
2021/07/15 01:43:05;;;;;;;667.50;599.60;;;;;;;;;;4360643;32;20084;-85
2021/07/15 01:45:35;;;;;;;1713.97;910.42;;;;;;;;;;4373730;32;20066;-84
2021/07/15 01:48:06;;;;;;;1083.68;826.65;;;;;;;;;;4375451;32;20126;-85
2021/07/15 01:50:35;;;;;;;1618.07;923.38;;;;;;;;;;4359396;32;20165;-84
2021/07/15 01:53:04;;;;;;;1103.40;777.08;;;;;;;;;;4375051;32;20068;-85
2021/07/15 01:55:33;;;;;;;1516.65;850.45;;;;;;;;;;4373859;32;20047;-84
2021/07/15 01:58:03;;;;;;;1445.80;878.70;;;;;;;;;;4372232;32;20748;-85
2021/07/15 02:00:32;;;;;;;1627.65;907.87;;;;;;;;;;4371714;32;20095;-84
2021/07/15 02:03:02;;;;;;;1158.97;787.38;;;;;;;;;;4375499;32;20176;-83
2021/07/15 02:05:32;;;;;;;1105.68;797.40;;;;;;;;;;4378778;32;20075;-84
2021/07/15 02:08:02;;;;;;;1818.93;954.33;;;;;;;;;;4375079;32;20051;-84
2021/07/15 02:10:31;;;;;;;1242.10;780.33;;;;;;;;;;4373178;32;20070;-84
2021/07/15 02:13:00;;;;;;;1535.72;938.53;;;;;;;;;;4373118;32;20066;-85
2021/07/15 02:15:29;;;;;;;1783.90;962.50;;;;;;;;;;4372440;32;20063;-84
2021/07/15 02:17:59;;;;;;;1266.13;867.92;;;;;;;;;;4374170;32;20092;-85
2021/07/15 02:20:29;;;;;;;1245.07;851.28;;;;;;;;;;4371789;32;20138;-83
2021/07/15 02:22:57;;;;;;;1330.63;858.22;;;;;;;;;;4358897;32;20123;-84
2021/07/15 02:25:26;;;;;;;1168.03;846.42;;;;;;;;;;4374897;32;20258;-84
2021/07/15 02:27:57;;;;;;;932.97;757.78;;;;;;;;;;4374436;32;20153;-84
2021/07/15 02:30:25;;;;;;;1535.50;935.70;;;;;;;;;;4372592;32;20205;-84
2021/07/15 02:32:57;;;;;;;1754.22;954.47;;;;;;;;;;4371477;32;20745;-85
2021/07/15 02:35:29;;;;;;;1072.68;828.05;;;;;;;;;;4372396;32;20115;-84
2021/07/15 02:37:58;;;;;;;1215.00;855.00;;;;;;;;;;4372497;32;20082;-84
2021/07/15 02:40:27;;;;;;;1226.10;860.53;;;;;;;;;;4370402;32;20087;-85
2021/07/15 02:42:57;;;;;;;1255.95;886.92;;;;;;;;;;4370365;32;20149;-84
2021/07/15 02:45:26;;;;;;;887.10;741.78;;;;;;;;;;4373906;32;20079;-85
2021/07/15 02:47:55;;;;;;;1672.50;957.20;;;;;;;;;;4372117;32;20069;-85
2021/07/15 02:50:27;;;;;;;1647.63;940.30;;;;;;;;;;4369813;32;20487;-84
2021/07/15 02:52:57;;;;;;;1514.70;890.35;;;;;;;;;;4370489;32;20095;-85
2021/07/15 02:55:26;;;;;;;1551.68;894.40;;;;;;;;;;4371973;32;20081;-85
2021/07/15 02:58:13;;;;;;;619.53;564.90;;;;;;;;;;4373820;32;20086;-86
2021/07/15 03:00:50;;;;;;;918.92;738.60;;;;;;;;;;4372065;32;20205;-85
2021/07/15 03:03:43;;;;;;;1627.38;912.63;;;;;;;;;;4370397;32;22082;-84
2021/07/15 03:06:18;;;;;;;898.87;734.30;;;;;;;;;;4372288;32;20062;-85
2021/07/15 03:08:46;;;;;;;;;;;;;;;;;;4374881;32;20127;-84
2021/07/15 03:14:05;;;;;;;1275.45;867.22;;;;;;;;;;4338832;32;21337;-85
2021/07/15 03:16:35;;;;;;;970.37;747.03;;;;;;;;;;4339554;33;20138;-84
2021/07/15 03:19:05;;;;;;;1376.88;900.08;;;;;;;;;;4340318;32;20123;-84
2021/07/15 03:27:27;;;;;;;1730.45;932.55;;;;;;;;;;4722741;28;20464;-83
2021/07/15 03:29:58;;;;;;;1609.95;910.70;;;;;;;;;;4257157;33;20119;-83
2021/07/15 03:32:27;;;;;;;1260.03;839.50;;;;;;;;;;4258517;33;20128;-83
2021/07/15 03:34:56;;;;;;;1340.45;877.08;;;;;;;;;;4260588;33;20050;-84
2021/07/15 03:37:25;;;;;;;1435.13;915.78;;;;;;;;;;4258528;33;20127;-83
2021/07/15 03:39:54;;;;;;;1168.28;842.70;;;;;;;;;;4257854;33;20121;-84
2021/07/15 03:42:23;;;;;;;890.00;785.92;;;;;;;;;;4258616;33;20100;-84
2021/07/15 03:44:52;;;;;;;1331.78;900.08;;;;;;;;;;4258015;33;20053;-84
2021/07/15 03:47:22;;;;;;;1233.65;877.60;;;;;;;;;;4260017;33;20112;-84
2021/07/15 03:49:52;;;;;;;1267.57;852.55;;;;;;;;;;4258011;33;20084;-84
2021/07/15 03:52:21;;;;;;;1400.60;908.92;;;;;;;;;;4258516;33;20388;-84
2021/07/15 03:54:50;;;;;;;1360.47;866.58;;;;;;;;;;4258553;33;20280;-83
2021/07/15 03:57:20;;;;;;;1734.35;957.90;;;;;;;;;;4260130;33;20088;-84
2021/07/15 03:59:50;;;;;;;1303.55;880.10;;;;;;;;;;4256838;33;20089;-84
2021/07/15 04:02:24;;;;;;;1168.15;841.95;;;;;;;;;;4260436;33;20059;-85
2021/07/15 04:04:55;;;;;;;1518.88;886.17;;;;;;;;;;4248424;33;20113;-85
2021/07/15 04:07:25;;;;;;;1732.03;924.62;;;;;;;;;;4258615;33;20603;-84
2021/07/15 04:09:55;;;;;;;1350.35;871.25;;;;;;;;;;4257777;33;20372;-84
2021/07/15 04:12:24;;;;;;;1409.30;901.90;;;;;;;;;;4256913;33;20558;-84
2021/07/15 04:15:01;;;;;;;1515.05;900.67;;;;;;;;;;4257873;33;20133;-84
2021/07/15 04:17:32;;;;;;;1603.43;930.47;;;;;;;;;;4259363;33;20057;-84
2021/07/15 04:20:00;;;;;;;1656.03;918.45;;;;;;;;;;4256250;33;20080;-84
2021/07/15 04:22:30;;;;;;;1158.50;812.37;;;;;;;;;;4257344;33;20123;-84
2021/07/15 04:25:00;;;;;;;1560.38;869.95;;;;;;;;;;4258235;33;20908;-83
2021/07/15 04:27:29;;;;;;;1030.60;768.97;;;;;;;;;;4257811;33;20554;-84
2021/07/15 04:30:00;;;;;;;1246.07;874.72;;;;;;;;;;4258756;33;20067;-84
2021/07/15 04:32:33;;;;;;;1740.40;928.60;;;;;;;;;;4260180;33;20526;-84
2021/07/15 04:35:02;;;;;;;1428.03;864.83;;;;;;;;;;4260696;33;20057;-84
2021/07/15 04:37:31;;;;;;;708.25;634.67;;;;;;;;;;4259022;33;20061;-84
2021/07/15 04:40:00;;;;;;;1691.07;938.05;;;;;;;;;;4258301;33;23204;-83
2021/07/15 04:42:29;;;;;;;1699.65;955.87;;;;;;;;;;4258939;33;20110;-83
2021/07/15 04:44:58;;;;;;;1552.07;936.63;;;;;;;;;;4259165;33;20143;-83
2021/07/15 04:47:27;;;;;;;1944.80;970.63;;;;;;;;;;4261453;33;20049;-83
2021/07/15 04:49:55;;;;;;;1546.55;923.17;;;;;;;;;;4260397;33;20050;-84
2021/07/15 04:52:24;;;;;;;1108.05;807.30;;;;;;;;;;4250511;33;20487;-84
2021/07/15 04:54:53;;;;;;;1578.63;896.78;;;;;;;;;;4262729;33;20115;-84
2021/07/15 04:57:22;;;;;;;735.17;652.25;;;;;;;;;;4260750;33;20074;-84
2021/07/15 04:59:51;;;;;;;1359.38;909.78;;;;;;;;;;4270892;33;20428;-84
2021/07/15 05:02:24;;;;;;;888.05;784.28;;;;;;;;;;4263494;33;20130;-86
2021/07/15 05:04:53;;;;;;;1887.65;948.05;;;;;;;;;;4259326;33;20109;-86
2021/07/15 05:07:21;;;;;;;1483.00;898.30;;;;;;;;;;4262533;33;20942;-86
2021/07/15 05:09:50;;;;;;;1789.55;917.00;;;;;;;;;;4260149;33;20141;-86
2021/07/15 05:12:18;;;;;;;1183.88;838.50;;;;;;;;;;4263726;33;20517;-88
2021/07/15 05:14:47;;;;;;;1301.32;849.20;;;;;;;;;;4261468;33;20838;-84
2021/07/15 05:17:15;;;;;;;1287.30;858.67;;;;;;;;;;4262390;33;20042;-84
2021/07/15 05:19:45;;;;;;;821.25;732.05;;;;;;;;;;4259478;33;20404;-84
2021/07/15 05:22:13;;;;;;;1032.72;826.90;;;;;;;;;;4261052;33;20108;-84
2021/07/15 05:24:41;;;;;;;1141.45;883.72;;;;;;;;;;4260970;33;20093;-84
2021/07/15 05:27:10;;;;;;;899.97;801.65;;;;;;;;;;4262036;33;20125;-84
2021/07/15 05:29:39;;;;;;;1208.43;912.00;;;;;;;;;;4270477;33;20121;-83
2021/07/15 05:32:08;;;;;;;1499.22;984.08;;;;;;;;;;4259108;33;20117;-84
2021/07/15 05:34:37;;;;;;;1210.53;915.45;;;;;;;;;;4259643;33;20192;-86
2021/07/15 05:37:06;;;;;;;1010.55;816.47;;;;;;;;;;4258559;33;20128;-84
2021/07/15 05:39:35;;;;;;;1006.55;812.05;;;;;;;;;;4261590;33;20361;-84
2021/07/15 05:42:06;;;;;;;1091.10;818.60;;;;;;;;;;4261542;33;20114;-83
2021/07/15 05:44:35;;;;;;;1246.15;842.10;;;;;;;;;;4259638;33;20073;-83
2021/07/15 05:47:03;;;;;;;1394.25;912.80;;;;;;;;;;4260196;33;20171;-84
2021/07/15 05:49:35;;;;;;;1360.75;887.37;;;;;;;;;;4260845;33;20455;-83
2021/07/15 05:52:05;;;;;;;1021.08;790.90;;;;;;;;;;4258526;33;20109;-83
2021/07/15 05:54:34;;;;;;;641.67;588.15;;;;;;;;;;4260371;33;20141;-83
2021/07/15 05:57:02;;;;;;;1585.80;946.35;;;;;;;;;;4258309;33;20121;-83
2021/07/15 05:59:32;;;;;;;829.03;682.40;;;;;;;;;;4259901;33;20058;-83
2021/07/15 06:02:02;;;;;;;987.65;757.55;;;;;;;;;;4259892;33;20092;-83
2021/07/15 06:04:31;;;;;;;748.10;674.42;;;;;;;;;;4261408;33;20452;-84
2021/07/15 06:06:59;;;;;;;700.45;629.40;;;;;;;;;;4258253;33;20116;-82
2021/07/15 06:09:28;;;;;;;1206.57;881.38;;;;;;;;;;4260096;33;20073;-83
2021/07/15 06:11:57;;;;;;;1361.57;892.72;;;;;;;;;;4260751;33;20427;-84
2021/07/15 06:14:27;;;;;;;777.37;696.33;;;;;;;;;;4252038;33;20459;-82
2021/07/15 06:16:56;;;;;;;1234.93;859.55;;;;;;;;;;4258717;33;20099;-82
2021/07/15 06:19:25;;;;;;;727.75;649.90;;;;;;;;;;4261840;33;21284;-84
2021/07/15 06:21:53;;;;;;;1489.30;883.92;;;;;;;;;;4260374;33;22227;-83
2021/07/15 06:24:22;;;;;;;1428.82;902.53;;;;;;;;;;4259917;33;20358;-83
2021/07/15 06:26:51;;;;;;;788.05;702.62;;;;;;;;;;4258037;33;20503;-82
2021/07/15 06:29:19;;;;;;;1389.20;898.67;;;;;;;;;;4260540;33;20464;-83
2021/07/15 06:31:48;;;;;;;1219.88;930.63;;;;;;;;;;4258653;33;20062;-83
2021/07/15 06:34:17;;;;;;;891.50;787.08;;;;;;;;;;4261755;33;20482;-83
2021/07/15 06:36:46;;;;;;;720.10;646.25;;;;;;;;;;4257588;33;20104;-83
2021/07/15 06:39:15;;;;;;;829.65;725.90;;;;;;;;;;4260549;33;20168;-83
2021/07/15 06:41:44;;;;;;;1200.57;845.30;;;;;;;;;;4258224;33;20220;-83
2021/07/15 06:44:13;;;;;;;717.37;640.65;;;;;;;;;;4260083;33;20499;-84
2021/07/15 06:46:41;;;;;;;783.00;707.47;;;;;;;;;;4260633;33;20097;-83
2021/07/15 06:49:11;;;;;;;690.88;630.15;;;;;;;;;;4259924;33;20227;-83
2021/07/15 06:51:40;;;;;;;1070.72;839.30;;;;;;;;;;4260586;33;20908;-83
2021/07/15 06:54:08;;;;;;;943.35;806.87;;;;;;;;;;4270925;33;20587;-83
2021/07/15 06:56:38;;;;;;;922.78;822.30;;;;;;;;;;4267845;33;20042;-83
2021/07/15 06:59:07;;;;;;;1208.43;898.10;;;;;;;;;;4260949;33;20506;-83
2021/07/15 07:01:35;;;;;;;1458.68;886.55;;;;;;;;;;4258194;33;20445;-84
2021/07/15 07:04:04;;;;;;;1261.90;845.85;;;;;;;;;;4260422;33;20128;-83
2021/07/15 07:06:33;;;;;;;1691.65;907.28;;;;;;;;;;4260729;33;20129;-83
2021/07/15 07:09:01;;;;;;;1701.88;901.72;;;;;;;;;;4257668;33;20181;-84
2021/07/15 07:11:30;;;;;;;1999.90;963.50;;;;;;;;;;4256971;33;20103;-83
2021/07/15 07:13:58;;;;;;;999.62;733.85;;;;;;;;;;4258694;33;20479;-83
2021/07/15 07:16:27;;;;;;;1429.55;858.33;;;;;;;;;;4255824;33;20042;-83
2021/07/15 07:18:56;;;;;;;1772.15;932.92;;;;;;;;;;4261993;33;20706;-82
2021/07/15 07:21:31;;;;;;;1643.88;926.35;;;;;;;;;;4256806;33;20061;-84
2021/07/15 07:24:00;;;;;;;850.22;712.62;;;;;;;;;;4262702;33;20089;-83
2021/07/15 07:26:29;;;;;;;1477.15;973.62;;;;;;;;;;4257990;33;20165;-83
2021/07/15 07:28:57;;;;;;;1866.35;999.90;;;;;;;;;;4242833;33;20610;-86
2021/07/15 07:31:29;;;;;;;1130.95;879.08;;;;;;;;;;4242989;33;20511;-83
2021/07/15 07:33:58;;;;;;;1801.25;969.17;;;;;;;;;;4254301;33;20499;-82
2021/07/15 07:36:27;;;;;;;1999.90;995.00;;;;;;;;;;4244208;33;20186;-82
2021/07/15 07:38:55;;;;;;;1999.90;993.65;;;;;;;;;;4244473;33;20113;-83
2021/07/15 07:41:23;;;;;;;1296.18;897.83;;;;;;;;;;4245897;33;20083;-83
2021/07/15 07:43:53;;;;;;;1999.90;999.90;;;;;;;;;;4244495;33;20535;-83
2021/07/15 07:46:21;;;;;;;1974.03;999.90;;;;;;;;;;4242984;33;20775;-83
2021/07/15 07:48:50;;;;;;;1655.87;946.83;;;;;;;;;;4254595;33;20193;-83
2021/07/15 07:51:19;;;;;;;1266.72;882.00;;;;;;;;;;4241743;33;20100;-83
2021/07/15 07:53:48;;;;;;;866.58;778.00;;;;;;;;;;4247809;33;20591;-82
2021/07/15 07:56:16;;;;;;;1999.90;999.90;;;;;;;;;;4245675;33;20094;-83
2021/07/15 07:58:45;;;;;;;1999.90;999.90;;;;;;;;;;4244420;33;20109;-83
2021/07/15 08:01:14;;;;;;;1406.03;942.45;;;;;;;;;;4244791;33;20096;-83
2021/07/15 08:03:43;;;;;;;1633.55;932.97;;;;;;;;;;4245500;33;20105;-84
2021/07/15 08:06:11;;;;;;;1561.95;922.42;;;;;;;;;;4242088;33;20132;-83
2021/07/15 08:08:40;;;;;;;1999.90;999.90;;;;;;;;;;4243382;33;20058;-83
2021/07/15 08:11:09;;;;;;;1970.75;982.25;;;;;;;;;;4242211;33;20370;-82
2021/07/15 08:13:37;;;;;;;1999.90;999.10;;;;;;;;;;4244994;33;20118;-83
2021/07/15 08:16:06;;;;;;;1999.90;999.90;;;;;;;;;;4243413;33;20046;-84
2021/07/15 08:18:36;;;;;;;1971.43;999.90;;;;;;;;;;4253620;33;20120;-83
2021/07/15 08:21:04;;;;;;;1960.32;999.90;;;;;;;;;;4243474;33;20046;-84
2021/07/15 08:23:33;;;;;;;1999.90;999.90;;;;;;;;;;4246248;33;20078;-84
2021/07/15 08:26:02;;;;;;;1999.90;999.90;;;;;;;;;;4246786;33;20042;-82
2021/07/15 08:28:30;;;;;;;1999.90;999.90;;;;;;;;;;4269166;33;20093;-84
2021/07/15 08:31:03;;;;;;;1999.90;999.90;;;;;;;;;;4257968;33;20049;-84
2021/07/15 08:33:32;;;;;;;1781.10;999.90;;;;;;;;;;4263406;33;20759;-83
2021/07/15 08:36:01;;;;;;;1999.90;999.90;;;;;;;;;;4256729;33;20139;-82
2021/07/15 08:38:30;;;;;;;1999.90;999.90;;;;;;;;;;4258523;33;20046;-84
2021/07/15 08:40:58;;;;;;;1999.90;999.90;;;;;;;;;;4255342;33;20204;-82
2021/07/15 08:43:31;;;;;;;1736.60;999.90;;;;;;;;;;4260869;33;20112;-82
2021/07/15 08:46:00;;;;;;;1999.90;999.90;;;;;;;;;;4256572;33;20475;-83
2021/07/15 08:48:30;;;;;;;1999.90;999.90;;;;;;;;;;4261634;33;20160;-83
2021/07/15 08:50:59;;;;;;;1999.90;999.90;;;;;;;;;;4258782;33;20071;-84
2021/07/15 08:53:30;;;;;;;1999.90;999.90;;;;;;;;;;4257257;33;20050;-82
2021/07/15 08:56:44;;;;;;;1462.35;956.45;;;;;;;;;;4257030;33;20550;-85
2021/07/15 08:58:47;;;;;;;1999.90;999.90;;;;;;;;;;4257333;33;20109;-83
2021/07/15 09:01:17;;;;;;;1999.90;999.90;;;;;;;;;;4255393;33;20423;-83
2021/07/15 09:03:47;;;;;;;1897.53;996.53;;;;;;;;;;4259448;33;20073;-83
2021/07/15 09:06:15;;;;;;;1044.45;868.25;;;;;;;;;;4254857;33;20951;-82
2021/07/15 09:08:44;;;;;;;1854.75;999.90;;;;;;;;;;4259600;33;20148;-83
2021/07/15 09:11:12;;;;;;;1990.82;999.90;;;;;;;;;;4244636;33;20084;-82
2021/07/15 09:13:42;;;;;;;1999.90;999.90;;;;;;;;;;4257361;33;20173;-83
2021/07/15 09:16:12;;;;;;;1993.90;999.90;;;;;;;;;;4258739;33;20078;-84
2021/07/15 09:18:59;;;;;;;1999.90;999.90;;;;;;;;;;4259825;33;20516;-83
2021/07/15 09:21:33;;;;;;;1999.90;999.90;;;;;;;;;;4258167;33;20128;-83
2021/07/15 09:24:02;;;;;;;1785.35;999.90;;;;;;;;;;4257423;33;20429;-84
2021/07/15 09:26:31;;;;;;;1264.00;898.10;;;;;;;;;;4259664;33;20081;-84
2021/07/15 09:29:15;;;;;;;1999.90;999.90;;;;;;;;;;4257236;33;20184;-83
2021/07/15 09:31:55;;;;;;;1314.22;939.78;;;;;;;;;;4258832;33;20456;-83
2021/07/15 09:34:25;;;;;;;1999.90;999.90;;;;;;;;;;4261908;33;20460;-83
2021/07/15 09:36:54;;;;;;;1654.20;980.78;;;;;;;;;;4259878;33;20471;-83
2021/07/15 09:39:23;;;;;;;1876.63;999.90;;;;;;;;;;4257356;33;20073;-84
2021/07/15 09:42:05;;;;;;;1999.90;999.90;;;;;;;;;;4258674;33;20089;-84
2021/07/15 09:44:35;;;;;;;1127.55;853.75;;;;;;;;;;4270228;33;21307;-83
2021/07/15 09:47:06;;;;;;;1039.93;862.25;;;;;;;;;;4259087;33;20108;-83
2021/07/15 09:49:36;;;;;;;1571.20;955.92;;;;;;;;;;4259800;33;20042;-83
2021/07/15 09:52:04;;;;;;;1468.20;938.22;;;;;;;;;;4259739;33;20212;-84
2021/07/15 09:54:33;;;;;;;1451.15;920.47;;;;;;;;;;4273156;33;20120;-83
2021/07/15 09:57:02;;;;;;;1396.65;904.20;;;;;;;;;;4260867;33;20085;-84
2021/07/15 09:59:48;;;;;;;1999.90;999.90;;;;;;;;;;4260281;33;20401;-83
2021/07/15 10:02:28;;;;;;;1376.38;924.95;;;;;;;;;;4261210;33;20456;-82
2021/07/15 10:04:57;;;;;;;1528.13;935.75;;;;;;;;;;4259635;33;20080;-83
2021/07/15 10:07:26;;;;;;;1624.07;962.25;;;;;;;;;;4257965;33;20730;-83
2021/07/15 10:10:13;;;;;;;1086.90;857.67;;;;;;;;;;4260344;33;20122;-83
2021/07/15 10:12:42;;;;;;;1999.90;999.90;;;;;;;;;;4264759;33;20156;-83
2021/07/15 10:15:14;;;;;;;1139.65;871.87;;;;;;;;;;4256562;33;20069;-84
2021/07/15 10:17:44;;;;;;;1667.73;978.63;;;;;;;;;;4260339;33;20665;-84
2021/07/15 10:20:14;;;;;;;1566.53;969.85;;;;;;;;;;4260617;33;20190;-84
2021/07/15 10:22:43;;;;;;;1555.07;964.53;;;;;;;;;;4261175;33;20075;-84
2021/07/15 10:25:15;;;;;;;1650.10;980.35;;;;;;;;;;4261714;33;20406;-83
2021/07/15 10:27:49;;;;;;;980.00;838.92;;;;;;;;;;4258455;33;20119;-84
2021/07/15 10:30:17;;;;;;;1860.53;994.33;;;;;;;;;;4269418;33;20092;-84
2021/07/15 10:32:46;;;;;;;1435.72;954.15;;;;;;;;;;4256532;33;20119;-83
2021/07/15 10:35:22;;;;;;;986.53;761.72;;;;;;;;;;4259764;33;20050;-84
2021/07/15 10:37:50;;;;;;;1330.68;845.47;;;;;;;;;;4260634;33;20131;-84
2021/07/15 10:40:19;;;;;;;1072.05;812.17;;;;;;;;;;4257423;33;20124;-83
2021/07/15 10:42:47;;;;;;;1462.90;893.70;;;;;;;;;;4259612;33;20578;-84
2021/07/15 10:45:16;;;;;;;1565.82;925.30;;;;;;;;;;4258522;33;20458;-83
2021/07/15 10:47:45;;;;;;;1225.25;856.85;;;;;;;;;;4259297;33;20033;-84
2021/07/15 10:50:13;;;;;;;1084.63;841.40;;;;;;;;;;4259057;33;20509;-83
2021/07/15 10:52:43;;;;;;;1015.33;829.25;;;;;;;;;;4261311;33;20069;-84
2021/07/15 10:55:14;;;;;;;986.35;804.37;;;;;;;;;;4259424;33;20061;-84
2021/07/15 10:57:42;;;;;;;938.55;790.33;;;;;;;;;;4259739;33;20124;-84
2021/07/15 11:00:29;;;;;;;1094.90;841.87;;;;;;;;;;4260976;33;20109;-84
2021/07/15 11:03:12;;;;;;;1276.82;919.28;;;;;;;;;;4259906;33;20093;-84
2021/07/15 11:05:58;;;;;;;1331.72;937.28;;;;;;;;;;4267994;33;20093;-84
2021/07/15 11:08:45;;;;;;;1063.07;815.38;;;;;;;;;;4259129;33;20053;-85
2021/07/15 11:11:13;;;;;;;1334.78;944.13;;;;;;;;;;4259013;33;20135;-83
2021/07/15 11:13:42;;;;;;;970.12;815.60;;;;;;;;;;4260829;33;20084;-84
2021/07/15 11:16:11;;;;;;;1358.80;996.92;;;;;;;;;;4256902;33;20120;-83
2021/07/15 11:18:52;;;;;;;1533.55;998.65;;;;;;;;;;4258773;33;20037;-85
2021/07/15 11:21:29;;;;;;;997.50;889.63;;;;;;;;;;4243781;33;20527;-84
2021/07/15 11:24:04;;;;;;;1123.60;927.88;;;;;;;;;;4263519;33;20119;-84
2021/07/15 11:26:43;;;;;;;947.05;847.42;;;;;;;;;;4260797;33;20152;-84
2021/07/15 11:29:12;;;;;;;1104.70;919.92;;;;;;;;;;4258548;33;20303;-84
2021/07/15 11:31:48;;;;;;;1298.95;979.45;;;;;;;;;;4257875;33;20084;-84
2021/07/15 11:34:36;;;;;;;1177.78;909.42;;;;;;;;;;4259690;33;20089;-84
2021/07/15 11:37:23;;;;;;;1257.93;962.28;;;;;;;;;;4257478;33;20093;-84
2021/07/15 11:39:52;;;;;;;1112.38;893.47;;;;;;;;;;4258545;33;20349;-84
2021/07/15 11:42:22;;;;;;;1001.08;883.47;;;;;;;;;;4256824;33;20113;-84
2021/07/15 11:44:57;;;;;;;1188.72;946.87;;;;;;;;;;4256974;33;20586;-84
2021/07/15 11:47:46;;;;;;;925.75;829.97;;;;;;;;;;4257736;33;20045;-84
2021/07/15 11:50:33;;;;;;;896.28;809.65;;;;;;;;;;4258844;33;20089;-85
2021/07/15 11:53:16;;;;;;;1036.45;877.22;;;;;;;;;;4258530;33;20209;-84
2021/07/15 11:55:46;;;;;;;1012.75;882.75;;;;;;;;;;4257230;33;20400;-83
2021/07/15 11:58:33;;;;;;;1362.55;956.30;;;;;;;;;;4261576;33;20045;-84
2021/07/15 12:01:18;;;;;;;901.60;810.10;;;;;;;;;;4258861;33;20498;-85
2021/07/15 12:04:04;;;;;;;1075.90;900.97;;;;;;;;;;4256653;33;20099;-83
2021/07/15 12:06:37;;;;;;;830.45;751.00;;;;;;;;;;4265295;33;20144;-84
2021/07/15 12:09:08;;;;;;;;;;;;;;;;;;4259991;33;20152;-83
2021/07/15 12:11:38;;;;;;;1023.10;871.85;;;;;;;;;;4258820;33;19963;-84
2021/07/15 12:14:11;;;;;;;907.10;821.55;;;;;;;;;;4257718;33;20776;-84
2021/07/15 12:16:44;;;;;;;1112.57;896.03;;;;;;;;;;4255609;33;20125;-84
2021/07/15 12:19:13;;;;;;;988.83;876.55;;;;;;;;;;4258837;33;20991;-85
2021/07/15 12:21:41;;;;;;;1242.57;946.70;;;;;;;;;;4257082;33;20085;-85
2021/07/15 12:24:18;;;;;;;1310.45;967.33;;;;;;;;;;4262091;33;20105;-84
2021/07/15 12:26:52;;;;;;;949.35;849.35;;;;;;;;;;4255703;33;20114;-83
2021/07/15 12:29:23;;;;;;;1039.53;901.47;;;;;;;;;;4257893;33;20109;-84
2021/07/15 12:31:52;;;;;;;841.53;760.35;;;;;;;;;;4258099;33;20124;-84
2021/07/15 12:34:21;;;;;;;1274.85;943.67;;;;;;;;;;4258948;33;20041;-84
2021/07/15 12:36:51;;;;;;;973.92;833.75;;;;;;;;;;4256744;33;20097;-84
2021/07/15 12:39:20;;;;;;;1078.75;882.72;;;;;;;;;;4256766;33;20344;-84
2021/07/15 12:41:48;;;;;;;1553.53;987.78;;;;;;;;;;4255782;33;20042;-83
2021/07/15 12:44:18;;;;;;;888.30;790.08;;;;;;;;;;4259798;33;20038;-85
2021/07/15 12:46:53;;;;;;;1152.03;877.70;;;;;;;;;;4254677;33;20807;-85
2021/07/15 12:49:25;;;;;;;761.28;688.72;;;;;;;;;;4259065;33;20108;-84
2021/07/15 12:51:59;;;;;;;912.75;816.35;;;;;;;;;;4256082;33;20117;-84
2021/07/15 12:54:31;;;;;;;905.12;814.85;;;;;;;;;;4259729;33;20866;-83
2021/07/15 12:57:01;;;;;;;1009.35;847.15;;;;;;;;;;4258196;33;20798;-84
2021/07/15 12:59:33;;;;;;;1038.22;874.13;;;;;;;;;;4257189;33;20833;-84
2021/07/15 13:02:29;;;;;;;1295.78;947.58;;;;;;;;;;4259373;33;20092;-84
2021/07/15 13:04:58;;;;;;;767.40;695.22;;;;;;;;;;4257634;33;22027;-84
2021/07/15 13:07:28;;;;;;;995.72;808.30;;;;;;;;;;4261223;33;20053;-85
2021/07/15 13:15:20;;;;;;;983.10;817.58;;;;;;;;;;4258895;33;20188;-84
2021/07/15 13:17:50;;;;;;;765.17;688.58;;;;;;;;;;4271119;33;20109;-84
2021/07/15 13:20:23;;;;;;;1438.68;922.97;;;;;;;;;;4260867;33;20077;-83
2021/07/15 13:22:59;;;;;;;892.97;770.50;;;;;;;;;;4260468;33;20409;-85
2021/07/15 13:25:28;;;;;;;1220.22;882.65;;;;;;;;;;4260876;33;20120;-84
2021/07/15 13:28:05;;;;;;;845.72;761.90;;;;;;;;;;4261868;33;20071;-84
2021/07/15 13:30:35;;;;;;;778.90;700.38;;;;;;;;;;4260057;33;20069;-84
2021/07/15 13:33:16;;;;;;;815.42;732.42;;;;;;;;;;4262686;33;20073;-85
2021/07/15 13:35:45;;;;;;;1068.32;850.97;;;;;;;;;;4258065;33;20115;-84
2021/07/15 13:38:14;;;;;;;1170.57;884.58;;;;;;;;;;4259023;33;20129;-83
2021/07/15 13:40:44;;;;;;;1106.00;866.72;;;;;;;;;;4262376;33;20060;-85
2021/07/15 13:43:17;;;;;;;1282.45;920.37;;;;;;;;;;4259084;33;20144;-84
2021/07/15 13:45:46;;;;;;;1151.57;893.17;;;;;;;;;;4259481;33;20298;-84
2021/07/15 13:48:16;;;;;;;967.08;813.97;;;;;;;;;;4260790;33;20621;-84
2021/07/15 13:50:46;;;;;;;924.10;779.30;;;;;;;;;;4259771;33;20108;-84
2021/07/15 13:53:15;;;;;;;702.42;634.95;;;;;;;;;;4260961;33;20110;-83
2021/07/15 13:55:46;;;;;;;855.03;764.42;;;;;;;;;;4262070;33;22105;-84
2021/07/15 13:58:16;;;;;;;1403.50;937.03;;;;;;;;;;4259850;33;20164;-84
2021/07/15 14:00:49;;;;;;;948.78;806.80;;;;;;;;;;4258757;33;20089;-84
2021/07/15 14:03:19;;;;;;;956.22;782.00;;;;;;;;;;4260757;33;20136;-83
2021/07/15 14:05:49;;;;;;;833.67;745.88;;;;;;;;;;4259153;33;20072;-84
2021/07/15 14:08:17;;;;;;;1030.93;846.83;;;;;;;;;;4261106;33;20163;-84
2021/07/15 14:10:46;;;;;;;1169.10;879.12;;;;;;;;;;4259331;33;20100;-83
2021/07/15 14:13:15;;;;;;;1030.20;831.03;;;;;;;;;;4260285;33;20101;-84
2021/07/15 14:15:45;;;;;;;1249.10;890.17;;;;;;;;;;4258593;33;20096;-84
2021/07/15 14:18:15;;;;;;;785.45;707.40;;;;;;;;;;4271830;33;20081;-84
2021/07/15 14:20:47;;;;;;;1099.63;803.20;;;;;;;;;;4259018;33;20097;-83